Impacts METAR Board
IDs:

KLGA - New York/La Guardia, NY, US

Updated at: 1000 UTC 06 Jun 2023
Potential Impact None Slight Moderate High
Time 05/22Z 05/23Z 06/00Z 06/01Z 06/02Z 06/03Z 06/04Z 06/05Z 06/06Z 06/07Z 06/08Z 06/09Z 06/10Z
Temp75 74 73 72 72 70 69 67 67 66 65 64 64
Dewpt45 45 46 48 42 43 41 42 41 44 42 42 41
Altim29.78 29.78 29.78 29.78 29.78 29.78 29.77 29.76 29.76 29.75 29.74 29.74 29.74
VIS10 10 10 10 10 9 8 7 7 7 7 7 6
CIG95 100 100 80 250 250 250 250 250 250 250 250 250
CoverBKNBKNBKNBKNBKNOVCOVCOVCOVCOVCOVCBKNBKN
FltCatVFRVFRVFRVFRVFRVFRVFRVFRVFRVFRVFRVFRVFR
WX------------------------HZ
WDir3503503400330330330330320310300300300
WSpd5 4 4 5 11 7 9 10 11 10 10 6 7
WGst-- -- -- -- 17 -- -- -- -- -- -- -- --
Raw hourly METARs
KLGA 052151Z 35005KT 10SM FEW065 BKN095 BKN250 24/07 A2978 RMK AO2 SLP085 T02390072
KLGA 052251Z 35004KT 10SM FEW065 BKN100 BKN250 23/07 A2978 RMK AO2 SLP084 T02330072
KLGA 052351Z 34004KT 10SM FEW065 BKN100 BKN250 23/08 A2978 RMK AO2 SLP084 T02280078 10250 20228 55004
KLGA 060051Z VRB05KT 10SM BKN080 BKN100 BKN250 22/09 A2978 RMK AO2 SLP084 T02220089
KLGA 060151Z 33011G17KT 10SM SCT080 SCT100 SCT180 BKN250 22/06 A2978 RMK AO2 SLP086 T02220056
KLGA 060251Z 33007KT 9SM FEW180 OVC250 21/06 A2978 RMK AO2 SLP084 T02110061 58000
KLGA 060351Z 33009KT 8SM FEW180 OVC250 21/05 A2977 RMK AO2 SLP082 T02060050
KLGA 060451Z 33010KT 7SM OVC250 19/06 A2976 RMK AO2 SLP079 T01940056 402500139
KLGA 060551Z 32011KT 7SM OVC250 19/05 A2976 RMK AO2 SLP077 T01940050 10233 20189 56006
KLGA 060651Z 31010KT 7SM OVC250 19/07 A2975 RMK AO2 SLP072 T01890067
KLGA 060751Z 30010KT 7SM OVC250 18/06 A2974 RMK AO2 SLP070 T01830056
KLGA 060851Z 30006KT 7SM BKN250 18/06 A2974 RMK AO2 SLP070 T01780056 56007
KLGA 060951Z 30007KT 6SM HZ BKN250 18/05 A2974 RMK AO2 SLP072 T01780050



Page loaded:  10:12 UTC  |   03:12 AM Pacific  |   04:12 AM Mountain  |   05:12 AM Central  |   06:12 AM Eastern

 

ADVISORIES

FORECASTS

FORECASTS

OBSERVATIONS

USER TOOLS

ABOUT US